Time;durP1;ratioP1;P1;durP2;ratioP2;P2;SDS_P1;SDS_P2;PMS_P1;PMS_P2;Temp;Humidity;BMP_temperature;BMP_pressure;BME280_temperature;BME280_humidity;BME280_pressure;Samples;Min_cycle;Max_cycle;Signal;HPM_P1;HPM_P2
2021/10/09 00:01:16;;;;;;;18.00;15.95;;;8.90;99.90;;;;;;5105809;28;20107;-64
2021/10/09 00:03:42;;;;;;;17.92;15.95;;;8.90;99.90;;;;;;5105012;28;20549;-64
2021/10/09 00:06:11;;;;;;;20.40;15.57;;;8.80;99.90;;;;;;5100952;28;20052;-64
2021/10/09 00:08:37;;;;;;;19.40;16.52;;;8.90;99.90;;;;;;5088461;28;20488;-64
2021/10/09 00:11:07;;;;;;;16.83;13.68;;;8.90;99.90;;;;;;5106879;28;20040;-64
2021/10/09 00:13:33;;;;;;;;;;;8.80;99.90;;;;;;5105282;28;20040;-64
2021/10/09 00:15:59;;;;;;;18.90;15.40;;;8.80;99.90;;;;;;5107503;28;20332;-64
2021/10/09 00:18:24;;;;;;;19.40;16.08;;;8.70;99.90;;;;;;5112757;28;20050;-65
2021/10/09 00:20:50;;;;;;;23.30;18.15;;;8.70;99.90;;;;;;5106348;28;20047;-66
2021/10/09 00:23:16;;;;;;;20.35;16.90;;;8.80;99.90;;;;;;5110441;28;20043;-64
2021/10/09 00:25:41;;;;;;;19.55;16.92;;;8.80;99.90;;;;;;5108586;28;20052;-64
2021/10/09 00:28:07;;;;;;;23.98;20.10;;;8.80;99.90;;;;;;5105746;28;20048;-64
2021/10/09 00:30:33;;;;;;;21.50;17.08;;;8.90;99.90;;;;;;5106925;28;20044;-64
2021/10/09 00:32:58;;;;;;;19.17;16.95;;;8.90;99.90;;;;;;5105805;28;20036;-64
2021/10/09 00:35:24;;;;;;;19.20;17.13;;;8.90;99.90;;;;;;5106434;28;20047;-64
2021/10/09 00:37:50;;;;;;;21.65;18.63;;;8.90;99.90;;;;;;5104440;28;20496;-64
2021/10/09 00:40:15;;;;;;;19.00;16.50;;;8.90;99.90;;;;;;5117236;28;20088;-65
2021/10/09 00:42:41;;;;;;;25.20;19.13;;;8.90;99.90;;;;;;5104655;28;20414;-65
2021/10/09 00:45:07;;;;;;;19.65;17.08;;;8.90;99.90;;;;;;5104340;28;20083;-65
2021/10/09 00:47:33;;;;;;;23.02;19.95;;;8.90;99.90;;;;;;5102737;28;20046;-64
2021/10/09 00:49:59;;;;;;;18.63;15.43;;;8.80;99.90;;;;;;5088244;28;20411;-64
2021/10/09 00:52:25;;;;;;;21.25;17.80;;;8.90;99.90;;;;;;5112054;28;20104;-64
2021/10/09 00:54:51;;;;;;;20.60;15.57;;;8.80;99.90;;;;;;5087467;28;20044;-64
2021/10/09 00:57:21;;;;;;;16.85;14.63;;;8.80;99.90;;;;;;5105994;28;20054;-64
2021/10/09 00:59:48;;;;;;;16.75;14.43;;;8.80;99.90;;;;;;5106345;28;20043;-64
2021/10/09 01:02:16;;;;;;;21.92;18.80;;;8.80;99.90;;;;;;5105488;28;20052;-64
2021/10/09 01:04:42;;;;;;;23.00;17.95;;;8.80;99.90;;;;;;5109380;28;20096;-64
2021/10/09 01:07:08;;;;;;;20.38;17.23;;;8.80;99.90;;;;;;5110587;28;20056;-64
2021/10/09 01:09:34;;;;;;;21.50;18.77;;;8.70;99.90;;;;;;5103812;28;20046;-65
2021/10/09 01:12:01;;;;;;;25.83;20.42;;;8.70;99.90;;;;;;5104260;28;20044;-64
2021/10/09 01:14:26;;;;;;;24.75;20.15;;;8.70;99.90;;;;;;5105053;28;20515;-64
2021/10/09 01:16:52;;;;;;;26.42;21.00;;;8.70;99.90;;;;;;5113325;28;20047;-64
2021/10/09 01:19:18;;;;;;;23.00;19.67;;;8.70;99.90;;;;;;5093678;28;20032;-65
2021/10/09 01:21:46;;;;;;;41.47;22.13;;;8.70;99.90;;;;;;5108882;28;20044;-65
2021/10/09 01:24:13;;;;;;;25.38;19.35;;;8.70;99.90;;;;;;5110812;28;20068;-64
2021/10/09 01:26:39;;;;;;;44.60;21.77;;;8.70;99.90;;;;;;5112614;28;20127;-64
2021/10/09 01:29:07;;;;;;;27.58;20.70;;;8.70;99.90;;;;;;5104490;28;20044;-64
2021/10/09 01:31:34;;;;;;;25.10;20.83;;;8.70;99.90;;;;;;5104358;28;20056;-64
2021/10/09 01:34:00;;;;;;;27.50;19.58;;;8.60;99.90;;;;;;5104201;28;20032;-65
2021/10/09 01:36:34;;;;;;;26.60;21.27;;;8.60;99.90;;;;;;5119140;28;20046;-64
2021/10/09 01:39:02;;;;;;;23.77;18.77;;;8.60;99.90;;;;;;5109601;28;20047;-64
2021/10/09 01:41:28;;;;;;;26.17;19.98;;;8.60;99.90;;;;;;5111678;28;20043;-64
2021/10/09 01:43:54;;;;;;;23.23;18.38;;;8.60;99.90;;;;;;5105229;28;20048;-64
2021/10/09 01:46:20;;;;;;;25.50;20.58;;;8.60;99.90;;;;;;5103242;28;20285;-64
2021/10/09 01:48:46;;;;;;;25.30;19.88;;;8.50;99.90;;;;;;5106293;28;20051;-64
2021/10/09 01:51:12;;;;;;;27.60;20.83;;;8.50;99.90;;;;;;5114203;28;20106;-64
2021/10/09 01:53:40;;;;;;;33.10;20.65;;;8.60;99.90;;;;;;5104186;28;20795;-64
2021/10/09 01:56:07;;;;;;;25.13;20.08;;;8.60;99.90;;;;;;5103460;28;20048;-64
2021/10/09 01:58:36;;;;;;;24.88;18.90;;;8.60;99.90;;;;;;5086480;28;20043;-64
2021/10/09 02:01:03;;;;;;;20.83;16.63;;;8.50;99.90;;;;;;5105717;28;20040;-64
2021/10/09 02:03:29;;;;;;;20.80;16.65;;;8.50;99.90;;;;;;5104203;28;20039;-64
2021/10/09 02:05:55;;;;;;;22.55;18.15;;;8.40;99.90;;;;;;5105969;28;20455;-64
2021/10/09 02:08:21;;;;;;;28.20;21.42;;;8.50;99.90;;;;;;5114481;28;20048;-64
2021/10/09 02:11:05;;;;;;;35.13;26.20;;;8.60;99.90;;;;;;5086349;28;20055;-64
2021/10/09 02:16:07;;;;;;;37.63;27.23;;;9.00;99.90;;;;;;5107997;28;20510;-64
2021/10/09 02:19:11;;;;;;;39.78;27.65;;;9.20;99.90;;;;;;5106539;28;20044;-64
2021/10/09 02:24:29;;;;;;;45.78;31.05;;;9.40;99.90;;;;;;5109422;28;20058;-64
2021/10/09 02:26:55;;;;;;;41.47;28.92;;;9.50;99.90;;;;;;5106138;28;20048;-64
2021/10/09 02:29:21;;;;;;;53.67;30.42;;;9.60;99.90;;;;;;5118632;28;20107;-65
2021/10/09 02:31:47;;;;;;;55.30;31.98;;;9.70;99.90;;;;;;5108718;28;20040;-64
2021/10/09 02:34:14;;;;;;;60.95;28.73;;;9.70;99.90;;;;;;5107205;28;20052;-64
2021/10/09 02:36:40;;;;;;;55.05;29.63;;;9.80;99.90;;;;;;5106803;28;20040;-64
2021/10/09 02:39:06;;;;;;;60.42;30.45;;;9.90;99.90;;;;;;5119191;28;20047;-64
2021/10/09 02:41:32;;;;;;;72.65;31.45;;;9.90;99.90;;;;;;5116064;27;20040;-64
2021/10/09 02:43:57;;;;;;;91.65;32.55;;;9.90;99.90;;;;;;5107929;28;20052;-65
2021/10/09 02:46:23;;;;;;;62.88;29.55;;;10.00;99.90;;;;;;5103828;28;20044;-64
2021/10/09 02:48:49;;;;;;;79.45;33.20;;;10.00;99.90;;;;;;5108023;28;20052;-64
2021/10/09 02:51:14;;;;;;;84.43;33.60;;;10.00;99.90;;;;;;5106335;28;20093;-64
2021/10/09 02:53:40;;;;;;;86.10;32.75;;;10.10;99.90;;;;;;5113013;28;20090;-64
2021/10/09 02:56:06;;;;;;;53.60;32.22;;;10.10;99.90;;;;;;5106994;28;20071;-64
2021/10/09 02:58:31;;;;;;;78.10;32.40;;;10.10;99.90;;;;;;5105164;28;20044;-64
2021/10/09 03:00:57;;;;;;;80.50;31.05;;;10.10;99.90;;;;;;5117162;28;20047;-64
2021/10/09 03:03:24;;;;;;;62.63;29.65;;;10.10;99.90;;;;;;5109705;28;20067;-65
2021/10/09 03:05:50;;;;;;;63.10;30.92;;;10.10;99.90;;;;;;5107876;28;20054;-64
2021/10/09 03:08:16;;;;;;;58.83;30.50;;;10.20;99.90;;;;;;5106476;28;20139;-65
2021/10/09 03:10:41;;;;;;;106.15;31.98;;;10.20;99.90;;;;;;5107966;28;20163;-64
2021/10/09 03:13:08;;;;;;;59.33;29.83;;;10.20;99.90;;;;;;5108169;28;20080;-64
2021/10/09 03:15:34;;;;;;;55.67;29.15;;;10.20;99.90;;;;;;5114189;28;20107;-64
2021/10/09 03:17:59;;;;;;;57.45;30.27;;;10.10;99.90;;;;;;5108871;28;20083;-64
2021/10/09 03:20:25;;;;;;;77.15;33.15;;;10.10;99.90;;;;;;5118047;28;20040;-64
2021/10/09 03:22:51;;;;;;;56.47;32.30;;;10.10;99.90;;;;;;5106477;28;20404;-64
2021/10/09 03:25:18;;;;;;;53.58;30.48;;;10.10;99.90;;;;;;5114381;28;20135;-64
2021/10/09 03:27:44;;;;;;;86.57;32.55;;;10.10;99.90;;;;;;5112203;27;20044;-64
2021/10/09 03:30:10;;;;;;;75.90;31.98;;;10.10;99.90;;;;;;5112088;28;20044;-64
2021/10/09 03:32:37;;;;;;;94.05;33.80;;;10.10;99.90;;;;;;5107190;28;20047;-64
2021/10/09 03:35:03;;;;;;;73.68;31.67;;;10.10;99.90;;;;;;5112932;28;20044;-64
2021/10/09 03:37:29;;;;;;;92.18;35.13;;;10.10;99.90;;;;;;5108518;28;20044;-64
2021/10/09 03:39:57;;;;;;;86.95;33.75;;;10.10;99.90;;;;;;5113618;28;20047;-64
2021/10/09 03:42:28;;;;;;;75.13;33.20;;;10.20;99.90;;;;;;5106267;28;20583;-64
2021/10/09 03:44:59;;;;;;;84.60;33.70;;;10.10;99.90;;;;;;5112957;28;20056;-64
2021/10/09 03:52:22;;;;;;;62.20;30.77;;;10.20;99.90;;;;;;5113719;28;20070;-64
2021/10/09 03:53:08;;;;;;;79.30;35.95;;;10.20;99.90;;;;;;5106755;28;20055;-64
2021/10/09 03:55:33;;;;;;;77.45;34.58;;;10.20;99.90;;;;;;5107205;28;20055;-64
2021/10/09 03:57:59;;;;;;;64.18;33.45;;;10.20;99.90;;;;;;5106308;28;20047;-64
2021/10/09 04:00:25;;;;;;;81.30;35.63;;;10.20;99.90;;;;;;5106003;28;20044;-65
2021/10/09 04:02:51;;;;;;;59.47;33.03;;;10.20;99.90;;;;;;5117683;28;20044;-64
2021/10/09 04:05:17;;;;;;;67.05;34.78;;;10.10;99.90;;;;;;5108348;28;20051;-64
2021/10/09 04:07:43;;;;;;;54.80;34.00;;;10.20;99.90;;;;;;5105335;28;20040;-64
2021/10/09 04:10:09;;;;;;;77.97;36.25;;;10.20;99.90;;;;;;5105275;28;20500;-64
2021/10/09 04:12:35;;;;;;;68.63;37.22;;;10.20;99.90;;;;;;5112157;28;20135;-64
2021/10/09 04:15:01;;;;;;;70.10;36.47;;;10.20;99.90;;;;;;5116939;28;20040;-64
2021/10/09 04:17:27;;;;;;;63.95;35.70;;;10.20;99.90;;;;;;5102736;28;20040;-64
2021/10/09 04:19:53;;;;;;;64.55;34.60;;;10.10;99.90;;;;;;5106247;28;20036;-64
2021/10/09 04:22:18;;;;;;;69.30;36.63;;;10.20;99.90;;;;;;5105164;28;20044;-64
2021/10/09 04:24:44;;;;;;;65.03;35.13;;;10.20;99.90;;;;;;5105903;28;20116;-64
2021/10/09 04:27:10;;;;;;;85.13;38.30;;;10.20;99.90;;;;;;5108434;28;20051;-65
2021/10/09 04:29:36;;;;;;;57.70;34.10;;;10.20;99.90;;;;;;5109197;28;20097;-64
2021/10/09 04:32:02;;;;;;;81.15;37.65;;;10.20;99.90;;;;;;5109743;28;20124;-64
2021/10/09 04:34:27;;;;;;;62.50;34.25;;;10.20;99.90;;;;;;5110973;28;20068;-64
2021/10/09 04:36:55;;;;;;;71.00;36.63;;;10.20;99.90;;;;;;5106724;28;20488;-64
2021/10/09 04:39:22;;;;;;;67.32;35.63;;;10.20;99.90;;;;;;5117120;28;20104;-65
2021/10/09 04:41:48;;;;;;;91.03;37.83;;;10.10;99.90;;;;;;5106225;28;20069;-64
2021/10/09 04:44:14;;;;;;;60.85;34.53;;;10.20;99.90;;;;;;5105257;28;20044;-64
2021/10/09 04:46:39;;;;;;;59.60;35.33;;;10.10;99.90;;;;;;5099996;28;20091;-64
2021/10/09 04:49:05;;;;;;;86.97;38.45;;;10.20;99.90;;;;;;5104623;28;20052;-64
2021/10/09 04:51:31;;;;;;;59.05;34.17;;;10.10;99.90;;;;;;5104186;28;20082;-64
2021/10/09 04:53:57;;;;;;;75.00;37.20;;;10.10;99.90;;;;;;5106504;28;20040;-64
2021/10/09 04:56:23;;;;;;;70.85;35.92;;;10.10;99.90;;;;;;5106901;28;20051;-64
2021/10/09 04:58:48;;;;;;;61.42;35.05;;;10.10;99.90;;;;;;5091942;28;20055;-64
2021/10/09 05:01:14;;;;;;;63.88;35.90;;;10.10;99.90;;;;;;5104438;28;20044;-64
2021/10/09 05:03:40;;;;;;;67.50;36.10;;;10.10;99.90;;;;;;5104988;28;20074;-65
2021/10/09 05:06:05;;;;;;;61.13;35.00;;;10.10;99.90;;;;;;5112860;28;20127;-64
2021/10/09 05:08:31;;;;;;;60.33;37.25;;;10.10;99.90;;;;;;5106612;28;20104;-64
2021/10/09 05:10:58;;;;;;;65.85;34.70;;;10.20;99.90;;;;;;5104189;28;20036;-64
2021/10/09 05:13:24;;;;;;;60.17;35.85;;;10.20;99.90;;;;;;5104215;28;20040;-64
2021/10/09 05:15:49;;;;;;;62.13;36.30;;;10.20;99.90;;;;;;5105182;28;20079;-65
2021/10/09 05:18:15;;;;;;;59.67;36.20;;;10.20;99.90;;;;;;5116243;28;20055;-64
2021/10/09 05:20:41;;;;;;;61.47;36.13;;;10.10;99.90;;;;;;5105742;28;20051;-64
2021/10/09 05:23:07;;;;;;;66.15;36.47;;;10.10;99.90;;;;;;5101581;28;20044;-64
2021/10/09 05:25:34;;;;;;;68.57;38.70;;;10.10;99.90;;;;;;5107736;28;20122;-64
2021/10/09 05:28:09;;;;;;;68.40;38.72;;;10.10;99.90;;;;;;5103996;28;20043;-64
2021/10/09 05:30:35;;;;;;;67.63;37.97;;;10.10;99.90;;;;;;5104279;28;20052;-64
2021/10/09 05:35:37;;;;;;;67.43;37.70;;;10.10;99.90;;;;;;5115398;28;20055;-64
2021/10/09 05:38:03;;;;;;;67.40;38.00;;;10.00;99.90;;;;;;5105277;28;20088;-64
2021/10/09 05:40:28;;;;;;;64.07;38.47;;;10.00;99.90;;;;;;5112025;28;20043;-64
2021/10/09 05:42:54;;;;;;;62.00;36.30;;;10.00;99.90;;;;;;5103079;28;20102;-64
2021/10/09 05:45:20;;;;;;;71.30;38.50;;;10.00;99.90;;;;;;5101591;28;20144;-64
2021/10/09 05:47:48;;;;;;;68.32;37.88;;;10.00;99.90;;;;;;5109051;28;20048;-64
2021/10/09 05:50:15;;;;;;;68.70;37.50;;;10.00;99.90;;;;;;5111855;28;20056;-64
2021/10/09 05:52:48;;;;;;;70.03;39.80;;;10.00;99.90;;;;;;5104391;28;20039;-64
2021/10/09 05:55:24;;;;;;;66.43;38.63;;;10.10;99.90;;;;;;5086099;28;20051;-65
2021/10/09 05:58:14;;;;;;;67.47;39.08;;;10.10;99.90;;;;;;5105704;28;20563;-64
2021/10/09 06:49:19;;;;;;;53.63;35.33;;;10.30;99.90;;;;;;5113429;28;20071;-64
2021/10/09 06:59:57;;;;;;;59.65;34.58;;;10.30;99.90;;;;;;5088387;28;20052;-64
2021/10/09 07:02:23;;;;;;;53.65;35.35;;;10.40;99.90;;;;;;5099175;28;20045;-65
2021/10/09 07:04:50;;;;;;;55.42;35.03;;;10.40;99.90;;;;;;5103411;28;20048;-64
2021/10/09 07:07:18;;;;;;;55.33;35.40;;;10.40;99.90;;;;;;5107847;28;20072;-64
2021/10/09 07:09:44;;;;;;;59.95;36.33;;;10.40;99.90;;;;;;5110190;28;20054;-64
2021/10/09 07:12:10;;;;;;;59.25;36.67;;;10.40;99.90;;;;;;5115715;28;20048;-64
2021/10/09 07:14:35;;;;;;;62.80;37.03;;;10.40;99.90;;;;;;5107810;28;20131;-64
2021/10/09 07:17:01;;;;;;;58.58;36.03;;;10.40;99.90;;;;;;5113657;28;20086;-64
2021/10/09 07:19:27;;;;;;;55.83;36.30;;;10.40;99.90;;;;;;5106538;28;20044;-64
2021/10/09 07:21:53;;;;;;;58.70;35.55;;;10.40;99.90;;;;;;5107777;28;20131;-64
2021/10/09 07:24:19;;;;;;;62.17;35.92;;;10.30;99.90;;;;;;5107357;28;20048;-64
2021/10/09 07:26:45;;;;;;;58.67;36.42;;;10.30;99.90;;;;;;5106051;28;20059;-64
2021/10/09 07:29:11;;;;;;;61.28;35.72;;;10.30;99.90;;;;;;5119211;28;20044;-64
2021/10/09 07:31:36;;;;;;;52.38;33.92;;;10.30;99.90;;;;;;5100564;28;20487;-65
2021/10/09 07:34:02;;;;;;;55.72;35.47;;;10.30;99.90;;;;;;5107438;28;20040;-64
2021/10/09 07:36:28;;;;;;;52.75;34.15;;;10.40;99.90;;;;;;5107698;28;20040;-65
2021/10/09 07:38:55;;;;;;;60.50;36.55;;;10.50;99.90;;;;;;5104890;28;20108;-67
2021/10/09 07:41:21;;;;;;;58.47;35.72;;;10.50;99.90;;;;;;5108517;28;20050;-66
2021/10/09 07:43:47;;;;;;;57.13;37.25;;;10.50;99.90;;;;;;5105353;28;20126;-65
2021/10/09 07:46:12;;;;;;;53.58;33.58;;;10.60;99.90;;;;;;5086487;28;20122;-66
2021/10/09 07:48:38;;;;;;;52.58;34.20;;;10.60;99.90;;;;;;5104531;28;20050;-66
2021/10/09 07:51:05;;;;;;;54.58;32.53;;;10.60;99.90;;;;;;5107589;28;20052;-67
2021/10/09 07:53:31;;;;;;;49.08;33.67;;;10.70;99.90;;;;;;5089836;28;20036;-65
2021/10/09 07:55:57;;;;;;;52.30;34.22;;;10.70;99.90;;;;;;5089318;28;20135;-66
2021/10/09 07:58:22;;;;;;;52.58;34.05;;;10.70;99.90;;;;;;5089131;28;20104;-66
2021/10/09 08:00:48;;;;;;;52.83;33.35;;;10.70;99.90;;;;;;5106196;28;20052;-66
2021/10/09 08:03:14;;;;;;;51.40;33.88;;;10.70;99.90;;;;;;5086659;28;20047;-65
2021/10/09 08:05:40;;;;;;;56.00;35.30;;;10.80;99.90;;;;;;5105556;28;20123;-66
2021/10/09 08:08:05;;;;;;;49.70;32.85;;;10.80;99.90;;;;;;5107159;28;20504;-66
2021/10/09 08:10:31;;;;;;;59.38;36.80;;;10.80;99.90;;;;;;5109433;28;20032;-65
2021/10/09 08:12:57;;;;;;;54.03;32.70;;;10.90;99.90;;;;;;5106900;28;20036;-65
2021/10/09 08:15:23;;;;;;;55.83;36.13;;;11.00;99.90;;;;;;5105614;28;20043;-66
2021/10/09 08:17:48;;;;;;;50.63;33.40;;;11.10;99.90;;;;;;5109506;28;20408;-65
2021/10/09 08:20:15;;;;;;;49.47;34.10;;;11.10;99.90;;;;;;5105862;28;20067;-66
2021/10/09 08:22:50;;;;;;;60.08;36.53;;;11.20;99.90;;;;;;5105312;28;20531;-65
2021/10/09 08:41:12;;;;;;;50.47;35.08;;;11.90;99.90;;;;;;5061132;28;20082;-65
2021/10/09 08:43:41;;;;;;;50.00;33.33;;;12.00;99.90;;;;;;5051344;28;20052;-66
2021/10/09 08:46:06;;;;;;;50.70;33.37;;;12.10;99.90;;;;;;5062014;28;20135;-66
2021/10/09 08:48:40;;;;;;;49.28;32.80;;;12.10;99.90;;;;;;5077381;28;20291;-64
2021/10/09 08:51:06;;;;;;;44.90;30.65;;;12.10;99.90;;;;;;5051610;28;20060;-64
2021/10/09 08:53:37;;;;;;;44.63;30.23;;;12.10;99.90;;;;;;5052530;28;20052;-64
2021/10/09 08:56:03;;;;;;;44.92;31.35;;;12.10;99.90;;;;;;5046299;28;20055;-64
2021/10/09 08:58:36;;;;;;;45.30;30.20;;;12.10;99.90;;;;;;5049015;28;20045;-64
2021/10/09 09:03:56;;;;;;;43.35;30.55;;;12.00;99.90;;;;;;5064586;28;20057;-64
2021/10/09 09:07:20;;;;;;;45.30;31.27;;;12.00;99.90;;;;;;5060200;28;20057;-64
2021/10/09 09:26:20;;;;;;;42.50;29.05;;;12.20;99.90;;;;;;5103349;28;20131;-66
2021/10/09 09:37:42;;;;;;;42.00;27.48;;;12.60;99.90;;;;;;5114456;28;20519;-64
2021/10/09 09:40:08;;;;;;;42.38;27.60;;;12.70;99.90;;;;;;5100627;28;20052;-63
2021/10/09 09:42:49;;;;;;;39.70;25.77;;;12.80;99.90;;;;;;5102600;28;20099;-64
2021/10/09 09:45:24;;;;;;;38.58;25.73;;;12.80;99.90;;;;;;5103873;28;20060;-64
2021/10/09 09:47:55;;;;;;;36.45;24.42;;;12.90;99.90;;;;;;5107227;28;20538;-64
2021/10/09 09:50:21;;;;;;;38.40;26.00;;;13.00;99.90;;;;;;5103760;28;20139;-64
2021/10/09 09:52:47;;;;;;;36.20;24.27;;;13.00;99.90;;;;;;5104057;28;20051;-64
2021/10/09 09:55:15;;;;;;;42.30;26.65;;;13.10;99.90;;;;;;5103682;28;20044;-64
2021/10/09 09:57:41;;;;;;;35.40;25.02;;;13.20;99.90;;;;;;5106216;28;20392;-65
2021/10/09 10:00:13;;;;;;;38.05;25.63;;;13.20;99.90;;;;;;5104361;28;20052;-64
2021/10/09 10:02:44;;;;;;;37.35;24.38;;;13.20;99.90;;;;;;5103768;28;20040;-63
2021/10/09 10:05:12;;;;;;;37.85;24.65;;;13.20;99.90;;;;;;5099068;28;20055;-63
2021/10/09 10:07:39;;;;;;;31.83;24.05;;;13.20;99.90;;;;;;5115166;28;20082;-64
2021/10/09 10:10:06;;;;;;;37.15;24.67;;;13.30;99.90;;;;;;5101634;28;20055;-64
2021/10/09 10:12:32;;;;;;;36.72;25.05;;;13.30;99.90;;;;;;5104263;28;20052;-64
2021/10/09 10:14:59;;;;;;;33.45;25.60;;;13.40;99.90;;;;;;5102242;28;20044;-68
2021/10/09 10:17:38;;;;;;;33.42;22.75;;;13.50;99.90;;;;;;5104419;28;20044;-64
2021/10/09 10:20:17;;;;;;;37.33;23.52;;;13.50;99.90;;;;;;5103690;28;20032;-65
2021/10/09 10:22:42;;;;;;;32.35;23.08;;;13.50;99.90;;;;;;5107613;28;20047;-64
2021/10/09 10:25:24;;;;;;;32.92;22.73;;;13.50;99.90;;;;;;5082999;28;20056;-65
2021/10/09 10:28:09;;;;;;;38.50;23.92;;;13.60;99.90;;;;;;5078635;28;20055;-64
2021/10/09 10:30:37;;;;;;;36.47;22.90;;;13.70;99.90;;;;;;5098253;28;20072;-62
2021/10/09 10:33:06;;;;;;;31.85;22.73;;;13.70;99.90;;;;;;5088427;28;20436;-60
2021/10/09 10:35:34;;;;;;;34.13;22.20;;;13.80;99.90;;;;;;5095347;28;20048;-60
2021/10/09 10:38:09;;;;;;;28.80;21.25;;;13.90;99.90;;;;;;5096444;28;20140;-60
2021/10/09 10:40:56;;;;;;;34.20;21.63;;;14.00;99.90;;;;;;5116191;27;20055;-60
2021/10/09 10:43:44;;;;;;;24.63;19.27;;;14.00;99.90;;;;;;5081108;28;20047;-61
2021/10/09 10:46:33;;;;;;;29.00;19.13;;;14.10;99.90;;;;;;5089788;27;20115;-61
2021/10/09 10:57:02;;;;;;;26.98;17.58;;;14.30;99.90;;;;;;5085339;28;20470;-62
2021/10/09 11:02:25;;;;;;;28.17;18.13;;;14.40;99.90;;;;;;5096286;28;20075;-65
2021/10/09 11:05:02;;;;;;;28.77;18.15;;;14.40;99.90;;;;;;5096665;28;20047;-62
2021/10/09 11:07:37;;;;;;;27.55;16.80;;;14.50;99.90;;;;;;5094158;28;20068;-62
2021/10/09 11:10:09;;;;;;;23.17;16.50;;;14.50;99.90;;;;;;5096154;28;20044;-62
2021/10/09 11:12:40;;;;;;;21.77;16.75;;;14.70;99.90;;;;;;5090272;28;20056;-63
2021/10/09 11:15:20;;;;;;;23.70;16.85;;;14.80;99.90;;;;;;5089127;28;20044;-63
2021/10/09 11:17:55;;;;;;;23.60;16.20;;;14.80;99.90;;;;;;5075788;28;20052;-63
2021/10/09 11:20:27;;;;;;;21.88;16.75;;;14.80;99.90;;;;;;5095353;28;20048;-63
2021/10/09 11:22:54;;;;;;;21.70;14.23;;;14.80;99.90;;;;;;5094858;27;20058;-63
2021/10/09 11:25:24;;;;;;;25.02;15.60;;;14.90;99.90;;;;;;5080551;28;20047;-63
2021/10/09 11:27:50;;;;;;;19.45;13.52;;;15.00;99.90;;;;;;5095220;27;20043;-62
2021/10/09 11:30:16;;;;;;;19.17;13.68;;;15.10;99.90;;;;;;5100940;28;20059;-63
2021/10/09 11:32:44;;;;;;;19.33;13.98;;;15.20;99.90;;;;;;5103806;27;20055;-63
2021/10/09 11:35:11;;;;;;;19.20;14.95;;;15.30;99.90;;;;;;5100416;27;20047;-63
2021/10/09 11:37:51;;;;;;;23.10;13.27;;;15.20;99.90;;;;;;5091363;27;20198;-63
2021/10/09 11:40:48;;;;;;;20.27;14.48;;;15.30;99.90;;;;;;5099207;28;20048;-63
2021/10/09 11:43:32;;;;;;;24.08;14.60;;;15.50;99.90;;;;;;5086132;28;20067;-63
2021/10/09 11:54:35;;;;;;;18.13;14.18;;;15.80;99.90;;;;;;5100459;28;20312;-63
2021/10/09 11:57:03;;;;;;;21.75;15.30;;;16.00;99.90;;;;;;5085746;28;20632;-63
2021/10/09 11:59:37;;;;;;;19.25;13.05;;;16.00;99.90;;;;;;5070691;28;20078;-63
2021/10/09 12:02:04;;;;;;;19.17;12.80;;;16.00;99.90;;;;;;5098685;28;20048;-66
2021/10/09 12:04:30;;;;;;;20.95;13.98;;;16.10;99.90;;;;;;5088771;28;20083;-64
2021/10/09 12:07:01;;;;;;;15.90;12.23;;;16.20;99.90;;;;;;5091272;28;20052;-69
2021/10/09 12:09:34;;;;;;;18.40;12.98;;;16.30;99.90;;;;;;5109927;28;20099;-62
2021/10/09 12:12:12;;;;;;;20.77;13.80;;;16.50;99.90;;;;;;5101487;27;20051;-65
2021/10/09 12:14:38;;;;;;;19.02;13.68;;;16.60;99.90;;;;;;5101353;28;20154;-64
2021/10/09 12:17:04;;;;;;;22.42;14.20;;;16.60;99.90;;;;;;5088844;27;20082;-68
2021/10/09 12:19:30;;;;;;;18.20;13.00;;;16.80;99.90;;;;;;5086031;28;20046;-64
2021/10/09 12:22:01;;;;;;;20.17;12.15;;;16.80;99.90;;;;;;5092797;28;20058;-64
2021/10/09 12:24:48;;;;;;;21.67;13.10;;;17.10;99.90;;;;;;5094308;28;20054;-63
2021/10/09 12:27:26;;;;;;;19.92;13.05;;;17.20;99.90;;;;;;5076550;28;20380;-62
2021/10/09 12:30:00;;;;;;;19.65;12.85;;;17.30;99.90;;;;;;5092237;28;20615;-64
2021/10/09 12:32:27;;;;;;;20.80;13.57;;;17.40;99.90;;;;;;5092448;27;20836;-64
2021/10/09 12:35:12;;;;;;;18.75;12.98;;;17.40;99.90;;;;;;5106757;28;20047;-64
2021/10/09 12:37:53;;;;;;;19.60;12.90;;;17.40;99.90;;;;;;5096613;27;20047;-64
2021/10/09 12:40:19;;;;;;;17.48;12.13;;;17.50;99.90;;;;;;5099952;28;20063;-64
2021/10/09 12:42:54;;;;;;;18.42;11.57;;;17.70;99.90;;;;;;5100064;28;20596;-64
2021/10/09 12:45:21;;;;;;;17.08;12.50;;;17.90;99.90;;;;;;5096185;28;20067;-64
2021/10/09 12:47:48;;;;;;;16.25;11.95;;;18.20;99.90;;;;;;5091853;27;20040;-64
2021/10/09 12:50:15;;;;;;;21.40;11.88;;;18.40;99.90;;;;;;5099144;28;20131;-64
2021/10/09 12:52:41;;;;;;;16.02;11.32;;;18.50;99.90;;;;;;5090097;27;20047;-64
2021/10/09 12:55:07;;;;;;;21.33;12.88;;;18.90;99.90;;;;;;5096979;28;20086;-64
2021/10/09 12:57:34;;;;;;;17.98;11.27;;;19.20;99.90;;;;;;5087418;28;20113;-64
2021/10/09 13:00:00;;;;;;;18.25;13.57;;;19.50;99.90;;;;;;5096473;28;20055;-64
2021/10/09 13:02:26;;;;;;;19.27;12.40;;;19.70;99.90;;;;;;5088368;28;20051;-64
2021/10/09 13:04:52;;;;;;;19.10;12.70;;;20.30;99.90;;;;;;5104350;28;20032;-64
2021/10/09 13:07:18;;;;;;;19.75;12.48;;;21.10;99.90;;;;;;5090152;28;20197;-64
2021/10/09 13:09:43;;;;;;;18.17;12.25;;;21.40;99.90;;;;;;5110121;27;20127;-64
2021/10/09 13:12:13;;;;;;;18.90;12.23;;;22.00;99.90;;;;;;5091790;28;20051;-65
2021/10/09 13:14:38;;;;;;;14.00;10.60;;;22.50;99.40;;;;;;5099197;28;20115;-64
2021/10/09 13:17:04;;;;;;;16.40;11.40;;;22.80;97.50;;;;;;5092828;28;20059;-64
2021/10/09 13:19:30;;;;;;;19.40;11.85;;;22.90;94.70;;;;;;5098418;28;20036;-64
2021/10/09 13:21:56;;;;;;;17.95;11.32;;;23.20;94.20;;;;;;5089373;27;20046;-64
2021/10/09 13:24:21;;;;;;;15.23;11.55;;;23.80;91.30;;;;;;5095970;28;20055;-64
2021/10/09 13:26:47;;;;;;;22.23;14.40;;;24.00;88.40;;;;;;5069019;28;20123;-65
2021/10/09 13:29:13;;;;;;;22.92;14.07;;;24.30;82.60;;;;;;5094465;28;20051;-64
2021/10/09 13:31:39;;;;;;;20.67;13.48;;;24.20;78.50;;;;;;5081812;28;20041;-64
2021/10/09 13:34:04;;;;;;;17.05;11.85;;;24.10;79.50;;;;;;5071754;28;20105;-64
2021/10/09 13:36:31;;;;;;;19.67;11.18;;;23.90;79.20;;;;;;5089357;28;20058;-65
2021/10/09 13:38:57;;;;;;;23.50;13.63;;;24.00;78.30;;;;;;5067607;28;20167;-64
2021/10/09 13:41:23;;;;;;;40.75;20.90;;;24.40;76.90;;;;;;5093246;28;20040;-64
2021/10/09 13:43:49;;;;;;;15.80;11.13;;;24.70;76.20;;;;;;5066868;28;20609;-64
2021/10/09 13:46:16;;;;;;;21.52;12.32;;;24.80;72.90;;;;;;5091567;28;20102;-64
2021/10/09 13:48:43;;;;;;;18.67;11.55;;;24.20;73.00;;;;;;5084906;28;20095;-64
2021/10/09 13:51:12;;;;;;;17.17;11.77;;;23.80;75.90;;;;;;5090224;28;20072;-64
2021/10/09 13:53:42;;;;;;;;;;;23.00;77.40;;;;;;5089208;28;20040;-64
2021/10/09 13:56:08;;;;;;;13.15;11.45;;;21.90;78.50;;;;;;5089488;28;19959;-64
2021/10/09 13:58:33;;;;;;;15.00;11.07;;;21.30;85.10;;;;;;5096769;28;20276;-64
2021/10/09 14:00:59;;;;;;;14.73;10.90;;;20.90;90.10;;;;;;5108952;28;20036;-64
2021/10/09 14:03:26;;;;;;;17.27;11.73;;;20.80;91.90;;;;;;5082989;28;20071;-64
2021/10/09 14:05:53;;;;;;;14.95;11.60;;;21.20;94.00;;;;;;5103202;28;20491;-64
2021/10/09 14:08:19;;;;;;;14.48;10.23;;;21.80;91.80;;;;;;5087078;28;20048;-64
2021/10/09 14:10:45;;;;;;;13.75;10.77;;;22.90;90.70;;;;;;5083651;28;20055;-64
2021/10/09 14:13:11;;;;;;;16.38;11.00;;;23.70;82.60;;;;;;5073394;27;20048;-64
2021/10/09 14:15:40;;;;;;;14.30;10.80;;;24.30;77.70;;;;;;5093302;28;20050;-65
2021/10/09 14:18:06;;;;;;;16.57;11.13;;;25.00;75.00;;;;;;5098864;27;20109;-64
2021/10/09 14:20:32;;;;;;;13.25;10.68;;;25.50;68.80;;;;;;5099632;28;20681;-64
2021/10/09 14:22:58;;;;;;;16.50;11.57;;;25.70;68.70;;;;;;5091179;27;20052;-65
2021/10/09 14:25:31;;;;;;;17.65;10.07;;;25.90;64.90;;;;;;5084184;28;20051;-64
2021/10/09 14:27:58;;;;;;;13.93;11.18;;;26.00;67.30;;;;;;5099051;27;20044;-65
2021/10/09 14:30:24;;;;;;;14.10;10.93;;;26.20;66.80;;;;;;5105988;28;20044;-64
2021/10/09 14:32:49;;;;;;;15.05;11.18;;;26.40;64.20;;;;;;5085225;28;20065;-65
2021/10/09 14:35:15;;;;;;;12.93;10.68;;;26.70;61.70;;;;;;5119600;27;20066;-65
2021/10/09 14:37:41;;;;;;;14.27;10.60;;;27.20;62.90;;;;;;5092419;27;20179;-66
2021/10/09 14:40:07;;;;;;;13.07;10.57;;;26.90;60.30;;;;;;5116927;28;20048;-66
2021/10/09 14:42:33;;;;;;;15.60;9.38;;;26.80;59.00;;;;;;5094051;28;20054;-67
2021/10/09 14:44:59;;;;;;;16.17;10.10;;;27.20;59.20;;;;;;5099099;28;20044;-66
2021/10/09 15:17:22;;;;;;;13.13;10.55;;;27.00;57.10;;;;;;5088683;28;20047;-67